sensor_id;sensor_type;location;lat;lon;timestamp;P1;durP1;ratioP1;P2;durP2;ratioP2
83284;SDS011;73191;50.074;8.488;2023-11-21T00:00:08;6.65;;;2.80;;
83284;SDS011;73191;50.074;8.488;2023-11-21T00:02:38;7.35;;;2.42;;
83284;SDS011;73191;50.074;8.488;2023-11-21T00:05:06;5.57;;;2.22;;
83284;SDS011;73191;50.074;8.488;2023-11-21T00:07:35;6.13;;;2.60;;
83284;SDS011;73191;50.074;8.488;2023-11-21T00:10:03;8.15;;;2.40;;
83284;SDS011;73191;50.074;8.488;2023-11-21T00:12:32;5.55;;;2.40;;
83284;SDS011;73191;50.074;8.488;2023-11-21T00:15:02;7.47;;;2.33;;
83284;SDS011;73191;50.074;8.488;2023-11-21T00:17:31;6.63;;;2.53;;
83284;SDS011;73191;50.074;8.488;2023-11-21T00:19:59;6.07;;;2.40;;
83284;SDS011;73191;50.074;8.488;2023-11-21T00:22:26;4.28;;;2.47;;
83284;SDS011;73191;50.074;8.488;2023-11-21T00:24:54;8.20;;;2.50;;
83284;SDS011;73191;50.074;8.488;2023-11-21T00:27:22;4.35;;;2.28;;
83284;SDS011;73191;50.074;8.488;2023-11-21T00:29:49;6.25;;;2.97;;
83284;SDS011;73191;50.074;8.488;2023-11-21T00:32:18;5.18;;;2.38;;
83284;SDS011;73191;50.074;8.488;2023-11-21T00:34:46;4.90;;;2.42;;
83284;SDS011;73191;50.074;8.488;2023-11-21T00:37:14;6.00;;;2.78;;
83284;SDS011;73191;50.074;8.488;2023-11-21T00:39:42;5.32;;;2.63;;
83284;SDS011;73191;50.074;8.488;2023-11-21T00:42:10;5.65;;;2.25;;
83284;SDS011;73191;50.074;8.488;2023-11-21T00:44:38;6.30;;;2.55;;
83284;SDS011;73191;50.074;8.488;2023-11-21T00:47:07;4.03;;;2.00;;
83284;SDS011;73191;50.074;8.488;2023-11-21T00:49:36;4.05;;;1.95;;
83284;SDS011;73191;50.074;8.488;2023-11-21T00:52:06;6.93;;;2.55;;
83284;SDS011;73191;50.074;8.488;2023-11-21T00:54:35;4.65;;;2.28;;
83284;SDS011;73191;50.074;8.488;2023-11-21T00:57:04;3.97;;;2.08;;
83284;SDS011;73191;50.074;8.488;2023-11-21T00:59:32;4.22;;;2.33;;
83284;SDS011;73191;50.074;8.488;2023-11-21T01:02:01;4.50;;;2.03;;
83284;SDS011;73191;50.074;8.488;2023-11-21T01:04:30;3.53;;;2.17;;
83284;SDS011;73191;50.074;8.488;2023-11-21T01:07:00;4.40;;;2.15;;
83284;SDS011;73191;50.074;8.488;2023-11-21T01:09:29;3.38;;;2.03;;
83284;SDS011;73191;50.074;8.488;2023-11-21T01:11:57;5.28;;;2.53;;
83284;SDS011;73191;50.074;8.488;2023-11-21T01:14:26;5.50;;;2.30;;
83284;SDS011;73191;50.074;8.488;2023-11-21T01:16:56;4.47;;;2.25;;
83284;SDS011;73191;50.074;8.488;2023-11-21T01:19:24;5.90;;;2.20;;
83284;SDS011;73191;50.074;8.488;2023-11-21T01:21:52;5.45;;;2.45;;
83284;SDS011;73191;50.074;8.488;2023-11-21T01:24:22;3.60;;;2.10;;
83284;SDS011;73191;50.074;8.488;2023-11-21T01:26:49;7.65;;;2.40;;
83284;SDS011;73191;50.074;8.488;2023-11-21T01:29:17;2.65;;;1.92;;
83284;SDS011;73191;50.074;8.488;2023-11-21T01:31:46;3.80;;;2.33;;
83284;SDS011;73191;50.074;8.488;2023-11-21T01:34:14;5.15;;;2.17;;
83284;SDS011;73191;50.074;8.488;2023-11-21T01:36:42;3.90;;;2.17;;
83284;SDS011;73191;50.074;8.488;2023-11-21T01:39:10;4.05;;;2.28;;
83284;SDS011;73191;50.074;8.488;2023-11-21T01:41:43;5.80;;;2.28;;
83284;SDS011;73191;50.074;8.488;2023-11-21T01:44:11;4.95;;;2.00;;
83284;SDS011;73191;50.074;8.488;2023-11-21T01:46:39;4.93;;;2.30;;
83284;SDS011;73191;50.074;8.488;2023-11-21T01:49:08;4.57;;;3.00;;
83284;SDS011;73191;50.074;8.488;2023-11-21T01:51:41;5.63;;;3.30;;
83284;SDS011;73191;50.074;8.488;2023-11-21T01:54:10;4.65;;;2.47;;
83284;SDS011;73191;50.074;8.488;2023-11-21T01:56:45;4.88;;;3.08;;
83284;SDS011;73191;50.074;8.488;2023-11-21T01:59:14;4.05;;;2.60;;
83284;SDS011;73191;50.074;8.488;2023-11-21T02:01:44;5.32;;;2.80;;
83284;SDS011;73191;50.074;8.488;2023-11-21T02:04:13;6.03;;;3.00;;
83284;SDS011;73191;50.074;8.488;2023-11-21T02:06:42;5.13;;;2.97;;
83284;SDS011;73191;50.074;8.488;2023-11-21T02:09:11;4.68;;;3.00;;
83284;SDS011;73191;50.074;8.488;2023-11-21T02:11:41;5.38;;;3.00;;
83284;SDS011;73191;50.074;8.488;2023-11-21T02:14:11;5.82;;;2.90;;
83284;SDS011;73191;50.074;8.488;2023-11-21T02:16:40;3.55;;;2.95;;
83284;SDS011;73191;50.074;8.488;2023-11-21T02:19:13;4.22;;;2.53;;
83284;SDS011;73191;50.074;8.488;2023-11-21T02:21:45;4.38;;;2.63;;
83284;SDS011;73191;50.074;8.488;2023-11-21T02:24:15;5.70;;;3.38;;
83284;SDS011;73191;50.074;8.488;2023-11-21T02:26:44;4.50;;;3.03;;
83284;SDS011;73191;50.074;8.488;2023-11-21T02:29:12;5.28;;;3.05;;
83284;SDS011;73191;50.074;8.488;2023-11-21T02:31:40;5.05;;;3.30;;
83284;SDS011;73191;50.074;8.488;2023-11-21T02:34:15;5.82;;;3.60;;
83284;SDS011;73191;50.074;8.488;2023-11-21T02:36:43;5.28;;;3.45;;
83284;SDS011;73191;50.074;8.488;2023-11-21T02:39:11;5.95;;;3.08;;
83284;SDS011;73191;50.074;8.488;2023-11-21T02:41:41;4.68;;;3.35;;
83284;SDS011;73191;50.074;8.488;2023-11-21T02:44:09;7.10;;;3.47;;
83284;SDS011;73191;50.074;8.488;2023-11-21T02:46:37;6.38;;;3.33;;
83284;SDS011;73191;50.074;8.488;2023-11-21T02:49:05;6.35;;;3.30;;
83284;SDS011;73191;50.074;8.488;2023-11-21T02:51:33;6.00;;;3.40;;
83284;SDS011;73191;50.074;8.488;2023-11-21T02:54:01;5.80;;;3.50;;
83284;SDS011;73191;50.074;8.488;2023-11-21T02:56:33;6.32;;;3.53;;
83284;SDS011;73191;50.074;8.488;2023-11-21T02:59:03;5.57;;;3.28;;
83284;SDS011;73191;50.074;8.488;2023-11-21T03:01:31;5.50;;;3.70;;
83284;SDS011;73191;50.074;8.488;2023-11-21T03:03:59;5.10;;;3.58;;
83284;SDS011;73191;50.074;8.488;2023-11-21T03:06:28;6.53;;;3.65;;
83284;SDS011;73191;50.074;8.488;2023-11-21T03:08:55;6.25;;;4.07;;
83284;SDS011;73191;50.074;8.488;2023-11-21T03:11:23;6.30;;;3.40;;
83284;SDS011;73191;50.074;8.488;2023-11-21T03:13:51;6.93;;;3.70;;
83284;SDS011;73191;50.074;8.488;2023-11-21T03:16:20;5.35;;;3.60;;
83284;SDS011;73191;50.074;8.488;2023-11-21T03:18:48;9.75;;;4.22;;
83284;SDS011;73191;50.074;8.488;2023-11-21T03:21:19;6.07;;;4.03;;
83284;SDS011;73191;50.074;8.488;2023-11-21T03:23:46;6.78;;;3.80;;
83284;SDS011;73191;50.074;8.488;2023-11-21T03:26:14;6.95;;;4.40;;
83284;SDS011;73191;50.074;8.488;2023-11-21T03:28:43;7.03;;;4.63;;
83284;SDS011;73191;50.074;8.488;2023-11-21T03:31:10;5.97;;;4.00;;
83284;SDS011;73191;50.074;8.488;2023-11-21T03:33:39;7.97;;;4.40;;
83284;SDS011;73191;50.074;8.488;2023-11-21T03:36:07;6.10;;;4.07;;
83284;SDS011;73191;50.074;8.488;2023-11-21T03:38:36;5.35;;;4.05;;
83284;SDS011;73191;50.074;8.488;2023-11-21T03:41:04;7.72;;;4.38;;
83284;SDS011;73191;50.074;8.488;2023-11-21T03:43:32;9.07;;;3.95;;
83284;SDS011;73191;50.074;8.488;2023-11-21T03:46:00;8.82;;;4.30;;
83284;SDS011;73191;50.074;8.488;2023-11-21T03:48:29;6.85;;;4.28;;
83284;SDS011;73191;50.074;8.488;2023-11-21T03:50:58;7.13;;;5.28;;
83284;SDS011;73191;50.074;8.488;2023-11-21T03:53:26;8.43;;;4.65;;
83284;SDS011;73191;50.074;8.488;2023-11-21T03:55:53;8.45;;;4.80;;
83284;SDS011;73191;50.074;8.488;2023-11-21T03:58:21;8.75;;;5.00;;
83284;SDS011;73191;50.074;8.488;2023-11-21T04:00:49;8.45;;;5.03;;
83284;SDS011;73191;50.074;8.488;2023-11-21T04:03:17;10.52;;;5.28;;
83284;SDS011;73191;50.074;8.488;2023-11-21T04:05:46;8.73;;;5.32;;
83284;SDS011;73191;50.074;8.488;2023-11-21T04:08:15;8.88;;;5.10;;
83284;SDS011;73191;50.074;8.488;2023-11-21T04:10:43;8.90;;;4.47;;
83284;SDS011;73191;50.074;8.488;2023-11-21T04:13:11;7.70;;;4.60;;
83284;SDS011;73191;50.074;8.488;2023-11-21T04:15:40;6.90;;;4.15;;
83284;SDS011;73191;50.074;8.488;2023-11-21T04:18:07;9.55;;;4.63;;
83284;SDS011;73191;50.074;8.488;2023-11-21T04:20:35;9.13;;;5.00;;
83284;SDS011;73191;50.074;8.488;2023-11-21T04:23:03;7.15;;;4.97;;
83284;SDS011;73191;50.074;8.488;2023-11-21T04:25:32;8.88;;;4.85;;
83284;SDS011;73191;50.074;8.488;2023-11-21T04:28:00;7.63;;;5.07;;
83284;SDS011;73191;50.074;8.488;2023-11-21T04:30:28;8.35;;;4.82;;
83284;SDS011;73191;50.074;8.488;2023-11-21T04:32:56;8.63;;;5.10;;
83284;SDS011;73191;50.074;8.488;2023-11-21T04:35:23;9.40;;;5.03;;
83284;SDS011;73191;50.074;8.488;2023-11-21T04:37:51;8.80;;;5.00;;
83284;SDS011;73191;50.074;8.488;2023-11-21T04:40:19;6.95;;;4.82;;
83284;SDS011;73191;50.074;8.488;2023-11-21T04:42:48;8.40;;;4.80;;
83284;SDS011;73191;50.074;8.488;2023-11-21T04:45:16;9.15;;;5.50;;
83284;SDS011;73191;50.074;8.488;2023-11-21T04:47:44;8.82;;;4.90;;
83284;SDS011;73191;50.074;8.488;2023-11-21T04:50:12;7.25;;;4.60;;
83284;SDS011;73191;50.074;8.488;2023-11-21T04:52:39;8.15;;;4.80;;
83284;SDS011;73191;50.074;8.488;2023-11-21T04:55:07;10.32;;;5.18;;
83284;SDS011;73191;50.074;8.488;2023-11-21T04:57:37;8.73;;;4.43;;
83284;SDS011;73191;50.074;8.488;2023-11-21T05:00:07;7.15;;;4.45;;
83284;SDS011;73191;50.074;8.488;2023-11-21T05:02:39;7.80;;;4.90;;
83284;SDS011;73191;50.074;8.488;2023-11-21T05:05:08;6.55;;;4.30;;
83284;SDS011;73191;50.074;8.488;2023-11-21T05:07:37;7.25;;;4.60;;
83284;SDS011;73191;50.074;8.488;2023-11-21T05:10:05;6.57;;;4.38;;
83284;SDS011;73191;50.074;8.488;2023-11-21T05:12:37;8.05;;;4.30;;
83284;SDS011;73191;50.074;8.488;2023-11-21T05:15:07;7.00;;;4.70;;
83284;SDS011;73191;50.074;8.488;2023-11-21T05:17:37;7.20;;;4.38;;
83284;SDS011;73191;50.074;8.488;2023-11-21T05:20:08;8.27;;;4.38;;
83284;SDS011;73191;50.074;8.488;2023-11-21T05:22:37;6.82;;;4.25;;
83284;SDS011;73191;50.074;8.488;2023-11-21T05:25:05;7.15;;;3.90;;
83284;SDS011;73191;50.074;8.488;2023-11-21T05:27:35;6.53;;;4.30;;
83284;SDS011;73191;50.074;8.488;2023-11-21T05:30:03;6.93;;;4.03;;
83284;SDS011;73191;50.074;8.488;2023-11-21T05:32:34;7.80;;;4.45;;
83284;SDS011;73191;50.074;8.488;2023-11-21T05:35:02;5.43;;;3.80;;
83284;SDS011;73191;50.074;8.488;2023-11-21T05:37:35;8.68;;;4.75;;
83284;SDS011;73191;50.074;8.488;2023-11-21T05:40:05;8.13;;;3.80;;
83284;SDS011;73191;50.074;8.488;2023-11-21T05:42:34;6.07;;;4.10;;
83284;SDS011;73191;50.074;8.488;2023-11-21T05:45:04;7.68;;;4.25;;
83284;SDS011;73191;50.074;8.488;2023-11-21T05:47:38;7.95;;;4.53;;
83284;SDS011;73191;50.074;8.488;2023-11-21T05:50:07;5.75;;;4.30;;
83284;SDS011;73191;50.074;8.488;2023-11-21T05:52:38;8.05;;;3.90;;
83284;SDS011;73191;50.074;8.488;2023-11-21T05:55:07;5.55;;;3.85;;
83284;SDS011;73191;50.074;8.488;2023-11-21T05:57:35;6.10;;;4.35;;
83284;SDS011;73191;50.074;8.488;2023-11-21T06:00:04;6.18;;;3.65;;
83284;SDS011;73191;50.074;8.488;2023-11-21T06:02:39;5.80;;;4.28;;
83284;SDS011;73191;50.074;8.488;2023-11-21T06:05:07;6.05;;;4.15;;
83284;SDS011;73191;50.074;8.488;2023-11-21T06:07:35;6.15;;;3.92;;
83284;SDS011;73191;50.074;8.488;2023-11-21T06:10:05;6.25;;;3.88;;
83284;SDS011;73191;50.074;8.488;2023-11-21T06:12:36;6.88;;;4.22;;
83284;SDS011;73191;50.074;8.488;2023-11-21T06:15:05;7.72;;;4.10;;
83284;SDS011;73191;50.074;8.488;2023-11-21T06:17:35;7.00;;;3.85;;
83284;SDS011;73191;50.074;8.488;2023-11-21T06:20:05;5.30;;;4.15;;
83284;SDS011;73191;50.074;8.488;2023-11-21T06:22:36;9.10;;;4.57;;
83284;SDS011;73191;50.074;8.488;2023-11-21T06:25:04;9.25;;;4.60;;
83284;SDS011;73191;50.074;8.488;2023-11-21T06:27:34;7.28;;;4.53;;
83284;SDS011;73191;50.074;8.488;2023-11-21T06:30:04;10.02;;;4.80;;
83284;SDS011;73191;50.074;8.488;2023-11-21T06:32:32;7.10;;;4.65;;
83284;SDS011;73191;50.074;8.488;2023-11-21T06:35:02;7.95;;;4.20;;
83284;SDS011;73191;50.074;8.488;2023-11-21T06:37:32;7.15;;;4.30;;
83284;SDS011;73191;50.074;8.488;2023-11-21T06:40:00;7.82;;;4.78;;
83284;SDS011;73191;50.074;8.488;2023-11-21T06:42:30;7.65;;;4.57;;
83284;SDS011;73191;50.074;8.488;2023-11-21T06:44:58;8.80;;;5.05;;
83284;SDS011;73191;50.074;8.488;2023-11-21T06:47:30;9.68;;;5.38;;
83284;SDS011;73191;50.074;8.488;2023-11-21T06:49:58;11.38;;;5.57;;
83284;SDS011;73191;50.074;8.488;2023-11-21T06:52:27;8.35;;;5.03;;
83284;SDS011;73191;50.074;8.488;2023-11-21T06:54:56;9.52;;;5.30;;
83284;SDS011;73191;50.074;8.488;2023-11-21T06:57:24;10.55;;;5.03;;
83284;SDS011;73191;50.074;8.488;2023-11-21T06:59:52;8.07;;;4.68;;
83284;SDS011;73191;50.074;8.488;2023-11-21T07:02:20;8.82;;;4.43;;
83284;SDS011;73191;50.074;8.488;2023-11-21T07:04:48;7.20;;;3.88;;
83284;SDS011;73191;50.074;8.488;2023-11-21T07:07:16;7.22;;;4.43;;
83284;SDS011;73191;50.074;8.488;2023-11-21T07:09:43;6.88;;;4.18;;
83284;SDS011;73191;50.074;8.488;2023-11-21T07:12:13;7.25;;;4.22;;
83284;SDS011;73191;50.074;8.488;2023-11-21T07:14:40;7.80;;;4.10;;
83284;SDS011;73191;50.074;8.488;2023-11-21T07:17:11;8.32;;;4.35;;
83284;SDS011;73191;50.074;8.488;2023-11-21T07:19:39;7.13;;;3.72;;
83284;SDS011;73191;50.074;8.488;2023-11-21T07:22:08;5.85;;;3.80;;
83284;SDS011;73191;50.074;8.488;2023-11-21T07:24:36;6.60;;;3.60;;
83284;SDS011;73191;50.074;8.488;2023-11-21T07:27:04;5.72;;;3.42;;
83284;SDS011;73191;50.074;8.488;2023-11-21T07:29:33;4.80;;;2.95;;
83284;SDS011;73191;50.074;8.488;2023-11-21T07:32:01;5.15;;;2.90;;
83284;SDS011;73191;50.074;8.488;2023-11-21T07:34:29;4.38;;;3.08;;
83284;SDS011;73191;50.074;8.488;2023-11-21T07:36:57;5.32;;;2.90;;
83284;SDS011;73191;50.074;8.488;2023-11-21T07:39:25;5.88;;;2.80;;
83284;SDS011;73191;50.074;8.488;2023-11-21T07:41:53;4.18;;;2.80;;
83284;SDS011;73191;50.074;8.488;2023-11-21T07:44:20;4.78;;;2.30;;
83284;SDS011;73191;50.074;8.488;2023-11-21T07:46:50;3.92;;;2.75;;
83284;SDS011;73191;50.074;8.488;2023-11-21T07:49:23;6.72;;;2.40;;
83284;SDS011;73191;50.074;8.488;2023-11-21T07:51:54;5.97;;;2.83;;
83284;SDS011;73191;50.074;8.488;2023-11-21T07:54:22;4.72;;;2.80;;
83284;SDS011;73191;50.074;8.488;2023-11-21T07:56:49;4.57;;;2.78;;
83284;SDS011;73191;50.074;8.488;2023-11-21T07:59:17;3.17;;;2.00;;
83284;SDS011;73191;50.074;8.488;2023-11-21T08:01:45;3.20;;;2.05;;
83284;SDS011;73191;50.074;8.488;2023-11-21T08:04:14;6.70;;;2.70;;
83284;SDS011;73191;50.074;8.488;2023-11-21T08:06:42;4.53;;;2.05;;
83284;SDS011;73191;50.074;8.488;2023-11-21T08:09:14;3.97;;;1.90;;
83284;SDS011;73191;50.074;8.488;2023-11-21T08:11:44;4.55;;;2.30;;
83284;SDS011;73191;50.074;8.488;2023-11-21T08:14:13;3.80;;;1.98;;
83284;SDS011;73191;50.074;8.488;2023-11-21T08:16:43;3.75;;;2.17;;
83284;SDS011;73191;50.074;8.488;2023-11-21T08:19:11;4.75;;;2.25;;
83284;SDS011;73191;50.074;8.488;2023-11-21T08:21:40;5.50;;;2.65;;
83284;SDS011;73191;50.074;8.488;2023-11-21T08:24:10;4.07;;;2.20;;
83284;SDS011;73191;50.074;8.488;2023-11-21T08:26:38;4.50;;;2.28;;
83284;SDS011;73191;50.074;8.488;2023-11-21T08:29:06;3.33;;;2.05;;
83284;SDS011;73191;50.074;8.488;2023-11-21T08:31:34;7.80;;;2.67;;
83284;SDS011;73191;50.074;8.488;2023-11-21T08:34:02;3.92;;;2.20;;
83284;SDS011;73191;50.074;8.488;2023-11-21T08:36:30;3.72;;;2.28;;
83284;SDS011;73191;50.074;8.488;2023-11-21T08:39:00;3.70;;;2.42;;
83284;SDS011;73191;50.074;8.488;2023-11-21T08:41:27;3.75;;;2.30;;
83284;SDS011;73191;50.074;8.488;2023-11-21T08:43:56;4.07;;;2.45;;
83284;SDS011;73191;50.074;8.488;2023-11-21T08:46:24;4.53;;;1.90;;
83284;SDS011;73191;50.074;8.488;2023-11-21T08:48:53;3.65;;;2.30;;
83284;SDS011;73191;50.074;8.488;2023-11-21T08:51:20;4.57;;;2.50;;
83284;SDS011;73191;50.074;8.488;2023-11-21T08:53:48;4.30;;;2.50;;
83284;SDS011;73191;50.074;8.488;2023-11-21T08:56:17;4.32;;;2.28;;
83284;SDS011;73191;50.074;8.488;2023-11-21T08:58:46;5.03;;;2.40;;
83284;SDS011;73191;50.074;8.488;2023-11-21T09:01:14;6.88;;;2.28;;
83284;SDS011;73191;50.074;8.488;2023-11-21T09:03:41;4.15;;;2.20;;
83284;SDS011;73191;50.074;8.488;2023-11-21T09:06:11;4.63;;;2.08;;
83284;SDS011;73191;50.074;8.488;2023-11-21T09:08:40;5.53;;;2.22;;
83284;SDS011;73191;50.074;8.488;2023-11-21T09:11:09;5.70;;;2.60;;
83284;SDS011;73191;50.074;8.488;2023-11-21T09:13:39;4.32;;;2.22;;
83284;SDS011;73191;50.074;8.488;2023-11-21T09:16:07;4.47;;;2.58;;
83284;SDS011;73191;50.074;8.488;2023-11-21T09:18:34;7.38;;;2.50;;
83284;SDS011;73191;50.074;8.488;2023-11-21T09:21:02;5.93;;;2.30;;
83284;SDS011;73191;50.074;8.488;2023-11-21T09:23:31;5.30;;;2.42;;
83284;SDS011;73191;50.074;8.488;2023-11-21T09:25:59;5.25;;;2.45;;
83284;SDS011;73191;50.074;8.488;2023-11-21T09:28:27;3.53;;;1.95;;
83284;SDS011;73191;50.074;8.488;2023-11-21T09:30:56;3.95;;;2.30;;
83284;SDS011;73191;50.074;8.488;2023-11-21T09:33:24;5.65;;;3.30;;
83284;SDS011;73191;50.074;8.488;2023-11-21T09:35:52;5.13;;;2.20;;
83284;SDS011;73191;50.074;8.488;2023-11-21T09:38:20;5.00;;;2.50;;
83284;SDS011;73191;50.074;8.488;2023-11-21T09:40:48;6.35;;;2.63;;
83284;SDS011;73191;50.074;8.488;2023-11-21T09:43:17;5.07;;;2.17;;
83284;SDS011;73191;50.074;8.488;2023-11-21T09:45:45;5.88;;;2.50;;
83284;SDS011;73191;50.074;8.488;2023-11-21T09:48:15;6.22;;;2.40;;
83284;SDS011;73191;50.074;8.488;2023-11-21T09:50:44;6.30;;;2.22;;
83284;SDS011;73191;50.074;8.488;2023-11-21T09:53:18;4.97;;;2.22;;
83284;SDS011;73191;50.074;8.488;2023-11-21T09:55:48;6.60;;;2.50;;
83284;SDS011;73191;50.074;8.488;2023-11-21T09:58:18;5.70;;;2.35;;
83284;SDS011;73191;50.074;8.488;2023-11-21T10:00:47;4.45;;;2.50;;
83284;SDS011;73191;50.074;8.488;2023-11-21T10:03:17;5.72;;;2.40;;
83284;SDS011;73191;50.074;8.488;2023-11-21T10:05:45;6.68;;;2.83;;
83284;SDS011;73191;50.074;8.488;2023-11-21T10:08:13;8.23;;;2.42;;
83284;SDS011;73191;50.074;8.488;2023-11-21T10:10:42;6.78;;;2.97;;
83284;SDS011;73191;50.074;8.488;2023-11-21T10:13:11;6.00;;;2.63;;
83284;SDS011;73191;50.074;8.488;2023-11-21T10:15:44;7.18;;;2.53;;
83284;SDS011;73191;50.074;8.488;2023-11-21T10:18:16;7.38;;;2.58;;
83284;SDS011;73191;50.074;8.488;2023-11-21T10:20:45;6.75;;;2.67;;
83284;SDS011;73191;50.074;8.488;2023-11-21T10:23:19;10.02;;;2.72;;
83284;SDS011;73191;50.074;8.488;2023-11-21T10:25:48;5.03;;;2.67;;
83284;SDS011;73191;50.074;8.488;2023-11-21T10:28:18;4.82;;;2.45;;
83284;SDS011;73191;50.074;8.488;2023-11-21T10:30:47;6.03;;;3.00;;
83284;SDS011;73191;50.074;8.488;2023-11-21T10:33:15;6.43;;;2.72;;
83284;SDS011;73191;50.074;8.488;2023-11-21T10:35:44;6.80;;;2.33;;
83284;SDS011;73191;50.074;8.488;2023-11-21T10:38:17;4.88;;;2.58;;
83284;SDS011;73191;50.074;8.488;2023-11-21T10:40:47;5.45;;;2.67;;
83284;SDS011;73191;50.074;8.488;2023-11-21T10:43:16;5.88;;;2.58;;
83284;SDS011;73191;50.074;8.488;2023-11-21T10:45:44;4.47;;;2.40;;
83284;SDS011;73191;50.074;8.488;2023-11-21T10:48:13;8.63;;;3.75;;
83284;SDS011;73191;50.074;8.488;2023-11-21T10:50:45;4.85;;;2.60;;
83284;SDS011;73191;50.074;8.488;2023-11-21T10:53:13;6.10;;;2.53;;
83284;SDS011;73191;50.074;8.488;2023-11-21T10:55:41;7.47;;;2.80;;
83284;SDS011;73191;50.074;8.488;2023-11-21T10:58:11;5.15;;;2.45;;
83284;SDS011;73191;50.074;8.488;2023-11-21T11:00:42;7.40;;;2.47;;
83284;SDS011;73191;50.074;8.488;2023-11-21T11:03:12;5.22;;;2.80;;
83284;SDS011;73191;50.074;8.488;2023-11-21T11:05:44;5.07;;;2.88;;
83284;SDS011;73191;50.074;8.488;2023-11-21T11:08:19;6.75;;;2.65;;
83284;SDS011;73191;50.074;8.488;2023-11-21T11:10:52;3.83;;;2.40;;
83284;SDS011;73191;50.074;8.488;2023-11-21T11:13:20;3.92;;;2.50;;
83284;SDS011;73191;50.074;8.488;2023-11-21T11:15:49;3.97;;;2.67;;
83284;SDS011;73191;50.074;8.488;2023-11-21T11:18:17;4.60;;;2.38;;
83284;SDS011;73191;50.074;8.488;2023-11-21T11:20:46;4.38;;;2.10;;
83284;SDS011;73191;50.074;8.488;2023-11-21T11:23:21;4.13;;;2.28;;
83284;SDS011;73191;50.074;8.488;2023-11-21T11:26:04;4.38;;;2.28;;
83284;SDS011;73191;50.074;8.488;2023-11-21T11:28:38;4.88;;;2.22;;
83284;SDS011;73191;50.074;8.488;2023-11-21T11:31:13;3.55;;;2.10;;
83284;SDS011;73191;50.074;8.488;2023-11-21T11:33:47;4.82;;;2.67;;
83284;SDS011;73191;50.074;8.488;2023-11-21T11:36:21;3.63;;;2.20;;
83284;SDS011;73191;50.074;8.488;2023-11-21T11:38:53;3.88;;;2.08;;
83284;SDS011;73191;50.074;8.488;2023-11-21T11:41:26;3.08;;;1.95;;
83284;SDS011;73191;50.074;8.488;2023-11-21T11:43:56;4.97;;;2.50;;
83284;SDS011;73191;50.074;8.488;2023-11-21T11:49:18;6.18;;;2.20;;
83284;SDS011;73191;50.074;8.488;2023-11-21T11:54:49;4.25;;;1.92;;
83284;SDS011;73191;50.074;8.488;2023-11-21T11:57:18;4.50;;;2.20;;
83284;SDS011;73191;50.074;8.488;2023-11-21T12:02:44;4.78;;;2.15;;
83284;SDS011;73191;50.074;8.488;2023-11-21T12:05:14;7.30;;;2.65;;
83284;SDS011;73191;50.074;8.488;2023-11-21T12:07:48;2.90;;;1.70;;
83284;SDS011;73191;50.074;8.488;2023-11-21T12:10:20;4.70;;;2.40;;
83284;SDS011;73191;50.074;8.488;2023-11-21T12:12:51;4.97;;;2.28;;
83284;SDS011;73191;50.074;8.488;2023-11-21T12:15:19;3.88;;;2.33;;
83284;SDS011;73191;50.074;8.488;2023-11-21T12:17:48;3.85;;;2.15;;
83284;SDS011;73191;50.074;8.488;2023-11-21T12:20:18;2.92;;;1.98;;
83284;SDS011;73191;50.074;8.488;2023-11-21T12:22:47;2.30;;;1.65;;
83284;SDS011;73191;50.074;8.488;2023-11-21T12:25:16;4.63;;;2.08;;
83284;SDS011;73191;50.074;8.488;2023-11-21T12:27:46;3.75;;;1.83;;
83284;SDS011;73191;50.074;8.488;2023-11-21T12:30:16;6.53;;;1.90;;
83284;SDS011;73191;50.074;8.488;2023-11-21T12:32:47;3.03;;;1.70;;
83284;SDS011;73191;50.074;8.488;2023-11-21T12:35:16;5.18;;;2.03;;
83284;SDS011;73191;50.074;8.488;2023-11-21T12:37:45;3.60;;;1.88;;
83284;SDS011;73191;50.074;8.488;2023-11-21T12:40:14;4.10;;;1.77;;
83284;SDS011;73191;50.074;8.488;2023-11-21T12:42:44;4.95;;;1.98;;
83284;SDS011;73191;50.074;8.488;2023-11-21T12:45:18;5.20;;;2.13;;
83284;SDS011;73191;50.074;8.488;2023-11-21T12:47:48;8.85;;;2.17;;
83284;SDS011;73191;50.074;8.488;2023-11-21T12:50:18;4.45;;;2.03;;
83284;SDS011;73191;50.074;8.488;2023-11-21T12:52:50;8.07;;;2.42;;
83284;SDS011;73191;50.074;8.488;2023-11-21T12:55:20;3.38;;;1.83;;
83284;SDS011;73191;50.074;8.488;2023-11-21T12:57:50;3.63;;;1.85;;
83284;SDS011;73191;50.074;8.488;2023-11-21T13:00:27;3.97;;;2.00;;
83284;SDS011;73191;50.074;8.488;2023-11-21T13:02:57;3.17;;;1.90;;
83284;SDS011;73191;50.074;8.488;2023-11-21T13:05:26;6.30;;;2.20;;
83284;SDS011;73191;50.074;8.488;2023-11-21T13:07:55;3.55;;;1.95;;
83284;SDS011;73191;50.074;8.488;2023-11-21T13:10:25;5.07;;;2.35;;
83284;SDS011;73191;50.074;8.488;2023-11-21T13:12:58;3.75;;;2.20;;
83284;SDS011;73191;50.074;8.488;2023-11-21T13:15:27;4.90;;;2.53;;
83284;SDS011;73191;50.074;8.488;2023-11-21T13:17:54;3.97;;;1.98;;
83284;SDS011;73191;50.074;8.488;2023-11-21T13:20:24;4.00;;;2.20;;
83284;SDS011;73191;50.074;8.488;2023-11-21T13:22:52;4.13;;;1.85;;
83284;SDS011;73191;50.074;8.488;2023-11-21T13:25:23;9.05;;;2.60;;
83284;SDS011;73191;50.074;8.488;2023-11-21T13:27:53;8.25;;;2.38;;
83284;SDS011;73191;50.074;8.488;2023-11-21T13:30:23;5.57;;;2.55;;
83284;SDS011;73191;50.074;8.488;2023-11-21T13:32:54;6.47;;;2.25;;
83284;SDS011;73191;50.074;8.488;2023-11-21T13:35:23;6.30;;;2.72;;
83284;SDS011;73191;50.074;8.488;2023-11-21T13:37:57;8.45;;;2.67;;
83284;SDS011;73191;50.074;8.488;2023-11-21T13:40:32;5.60;;;2.13;;
83284;SDS011;73191;50.074;8.488;2023-11-21T13:43:06;6.00;;;2.25;;
83284;SDS011;73191;50.074;8.488;2023-11-21T13:45:37;5.93;;;2.50;;
83284;SDS011;73191;50.074;8.488;2023-11-21T13:48:09;3.45;;;2.13;;
83284;SDS011;73191;50.074;8.488;2023-11-21T13:50:40;3.95;;;2.20;;
83284;SDS011;73191;50.074;8.488;2023-11-21T13:53:21;6.18;;;2.30;;
83284;SDS011;73191;50.074;8.488;2023-11-21T13:55:49;4.40;;;2.45;;
83284;SDS011;73191;50.074;8.488;2023-11-21T13:58:17;4.78;;;2.22;;
83284;SDS011;73191;50.074;8.488;2023-11-21T14:00:50;2.65;;;1.85;;
83284;SDS011;73191;50.074;8.488;2023-11-21T14:03:23;4.93;;;2.40;;
83284;SDS011;73191;50.074;8.488;2023-11-21T14:05:59;4.88;;;1.90;;
83284;SDS011;73191;50.074;8.488;2023-11-21T14:08:34;2.80;;;1.80;;
83284;SDS011;73191;50.074;8.488;2023-11-21T14:11:01;5.28;;;2.33;;
83284;SDS011;73191;50.074;8.488;2023-11-21T14:13:33;4.57;;;2.20;;
83284;SDS011;73191;50.074;8.488;2023-11-21T14:16:02;4.47;;;2.17;;
83284;SDS011;73191;50.074;8.488;2023-11-21T14:18:33;5.50;;;2.15;;
83284;SDS011;73191;50.074;8.488;2023-11-21T14:21:05;6.22;;;2.13;;
83284;SDS011;73191;50.074;8.488;2023-11-21T14:23:34;5.95;;;2.60;;
83284;SDS011;73191;50.074;8.488;2023-11-21T14:26:05;3.92;;;2.00;;
83284;SDS011;73191;50.074;8.488;2023-11-21T14:28:33;4.35;;;2.33;;
83284;SDS011;73191;50.074;8.488;2023-11-21T14:31:04;5.53;;;2.95;;
83284;SDS011;73191;50.074;8.488;2023-11-21T14:33:31;5.63;;;2.80;;
83284;SDS011;73191;50.074;8.488;2023-11-21T14:35:59;5.57;;;3.08;;
83284;SDS011;73191;50.074;8.488;2023-11-21T14:38:28;7.05;;;3.80;;
83284;SDS011;73191;50.074;8.488;2023-11-21T14:40:55;7.32;;;4.28;;
83284;SDS011;73191;50.074;8.488;2023-11-21T14:43:24;7.50;;;4.22;;
83284;SDS011;73191;50.074;8.488;2023-11-21T14:45:52;9.38;;;5.07;;
83284;SDS011;73191;50.074;8.488;2023-11-21T14:48:23;10.38;;;4.38;;
83284;SDS011;73191;50.074;8.488;2023-11-21T14:51:08;6.82;;;4.07;;
83284;SDS011;73191;50.074;8.488;2023-11-21T14:53:54;10.57;;;4.40;;
83284;SDS011;73191;50.074;8.488;2023-11-21T14:56:26;9.05;;;4.07;;
83284;SDS011;73191;50.074;8.488;2023-11-21T14:58:56;8.73;;;4.72;;
83284;SDS011;73191;50.074;8.488;2023-11-21T15:01:26;7.88;;;3.78;;
83284;SDS011;73191;50.074;8.488;2023-11-21T15:04:12;6.22;;;4.00;;
83284;SDS011;73191;50.074;8.488;2023-11-21T15:06:51;7.13;;;3.85;;
83284;SDS011;73191;50.074;8.488;2023-11-21T15:09:20;9.32;;;3.95;;